sensor_id;sensor_type;location;lat;lon;timestamp;P1;durP1;ratioP1;P2;durP2;ratioP2
10098;SDS011;5089;42.656;23.374;2023-03-24T00:34:06;0.10;;;0.10;;
10098;SDS011;5089;42.656;23.374;2023-03-24T00:36:34;0.20;;;0.20;;
10098;SDS011;5089;42.656;23.374;2023-03-24T00:39:03;0.20;;;0.20;;
10098;SDS011;5089;42.656;23.374;2023-03-24T00:41:32;0.20;;;0.20;;
10098;SDS011;5089;42.656;23.374;2023-03-24T00:43:59;0.10;;;0.10;;
10098;SDS011;5089;42.656;23.374;2023-03-24T00:46:30;0.10;;;0.10;;
10098;SDS011;5089;42.656;23.374;2023-03-24T00:48:59;0.17;;;0.17;;
10098;SDS011;5089;42.656;23.374;2023-03-24T00:51:33;0.10;;;0.10;;
10098;SDS011;5089;42.656;23.374;2023-03-24T00:54:01;0.10;;;0.10;;
10098;SDS011;5089;42.656;23.374;2023-03-24T00:56:30;0.20;;;0.20;;
10098;SDS011;5089;42.656;23.374;2023-03-24T00:58:58;0.10;;;0.10;;
10098;SDS011;5089;42.656;23.374;2023-03-24T01:01:27;0.20;;;0.20;;
10098;SDS011;5089;42.656;23.374;2023-03-24T01:03:57;0.10;;;0.10;;
10098;SDS011;5089;42.656;23.374;2023-03-24T01:06:25;0.20;;;0.20;;
10098;SDS011;5089;42.656;23.374;2023-03-24T01:08:53;0.20;;;0.20;;
10098;SDS011;5089;42.656;23.374;2023-03-24T01:11:21;0.10;;;0.10;;
10098;SDS011;5089;42.656;23.374;2023-03-24T01:13:50;0.10;;;0.10;;
10098;SDS011;5089;42.656;23.374;2023-03-24T01:16:18;0.10;;;0.10;;
10098;SDS011;5089;42.656;23.374;2023-03-24T01:18:50;0.10;;;0.10;;
10098;SDS011;5089;42.656;23.374;2023-03-24T01:21:17;0.10;;;0.10;;
10098;SDS011;5089;42.656;23.374;2023-03-24T01:23:45;0.20;;;0.20;;
10098;SDS011;5089;42.656;23.374;2023-03-24T01:26:15;0.10;;;0.10;;
10098;SDS011;5089;42.656;23.374;2023-03-24T01:28:42;0.20;;;0.20;;
10098;SDS011;5089;42.656;23.374;2023-03-24T01:31:09;0.20;;;0.20;;
10098;SDS011;5089;42.656;23.374;2023-03-24T01:33:37;0.10;;;0.10;;
10098;SDS011;5089;42.656;23.374;2023-03-24T01:36:05;0.10;;;0.10;;
10098;SDS011;5089;42.656;23.374;2023-03-24T01:38:34;0.13;;;0.13;;
10098;SDS011;5089;42.656;23.374;2023-03-24T01:41:02;0.10;;;0.10;;
10098;SDS011;5089;42.656;23.374;2023-03-24T01:43:34;0.20;;;0.20;;
10098;SDS011;5089;42.656;23.374;2023-03-24T01:46:06;0.20;;;0.20;;
10098;SDS011;5089;42.656;23.374;2023-03-24T01:48:41;0.10;;;0.10;;
10098;SDS011;5089;42.656;23.374;2023-03-24T01:51:12;0.10;;;0.10;;
10098;SDS011;5089;42.656;23.374;2023-03-24T01:53:44;0.10;;;0.10;;
10098;SDS011;5089;42.656;23.374;2023-03-24T01:56:14;0.10;;;0.10;;
10098;SDS011;5089;42.656;23.374;2023-03-24T01:58:45;0.10;;;0.10;;
10098;SDS011;5089;42.656;23.374;2023-03-24T02:01:15;0.10;;;0.10;;
10098;SDS011;5089;42.656;23.374;2023-03-24T02:03:43;0.30;;;0.30;;
10098;SDS011;5089;42.656;23.374;2023-03-24T02:06:11;0.10;;;0.10;;
10098;SDS011;5089;42.656;23.374;2023-03-24T02:08:40;0.20;;;0.20;;
10098;SDS011;5089;42.656;23.374;2023-03-24T02:11:12;0.20;;;0.20;;
10098;SDS011;5089;42.656;23.374;2023-03-24T02:13:39;0.10;;;0.10;;
10098;SDS011;5089;42.656;23.374;2023-03-24T02:19:03;0.10;;;0.10;;
10098;SDS011;5089;42.656;23.374;2023-03-24T02:30:51;0.10;;;0.10;;
10098;SDS011;5089;42.656;23.374;2023-03-24T02:37:02;0.10;;;0.10;;
10098;SDS011;5089;42.656;23.374;2023-03-24T02:42:41;0.10;;;0.10;;
10098;SDS011;5089;42.656;23.374;2023-03-24T02:45:21;0.10;;;0.10;;
10098;SDS011;5089;42.656;23.374;2023-03-24T02:47:58;0.20;;;0.20;;
10098;SDS011;5089;42.656;23.374;2023-03-24T02:50:35;0.10;;;0.10;;
10098;SDS011;5089;42.656;23.374;2023-03-24T02:53:10;0.10;;;0.10;;
10098;SDS011;5089;42.656;23.374;2023-03-24T02:55:44;0.10;;;0.10;;
10098;SDS011;5089;42.656;23.374;2023-03-24T02:58:20;0.10;;;0.10;;
10098;SDS011;5089;42.656;23.374;2023-03-24T03:00:53;0.10;;;0.10;;
10098;SDS011;5089;42.656;23.374;2023-03-24T03:30:20;0.20;;;0.20;;
10098;SDS011;5089;42.656;23.374;2023-03-24T03:32:52;0.10;;;0.10;;
10098;SDS011;5089;42.656;23.374;2023-03-24T03:35:26;0.20;;;0.20;;
10098;SDS011;5089;42.656;23.374;2023-03-24T03:38:02;0.20;;;0.20;;
10098;SDS011;5089;42.656;23.374;2023-03-24T03:40:40;0.20;;;0.20;;
10098;SDS011;5089;42.656;23.374;2023-03-24T03:43:16;0.20;;;0.20;;
10098;SDS011;5089;42.656;23.374;2023-03-24T03:45:45;0.17;;;0.17;;
10098;SDS011;5089;42.656;23.374;2023-03-24T03:48:14;0.10;;;0.10;;
10098;SDS011;5089;42.656;23.374;2023-03-24T03:50:42;0.10;;;0.10;;
10098;SDS011;5089;42.656;23.374;2023-03-24T03:53:10;0.10;;;0.10;;
10098;SDS011;5089;42.656;23.374;2023-03-24T03:55:40;0.10;;;0.10;;
10098;SDS011;5089;42.656;23.374;2023-03-24T03:58:09;0.10;;;0.10;;
10098;SDS011;5089;42.656;23.374;2023-03-24T04:00:37;0.10;;;0.10;;
10098;SDS011;5089;42.656;23.374;2023-03-24T04:03:12;0.20;;;0.20;;
10098;SDS011;5089;42.656;23.374;2023-03-24T04:05:55;0.10;;;0.10;;
10098;SDS011;5089;42.656;23.374;2023-03-24T04:08:31;0.10;;;0.10;;
10098;SDS011;5089;42.656;23.374;2023-03-24T04:14:14;0.10;;;0.10;;
10098;SDS011;5089;42.656;23.374;2023-03-24T04:16:57;0.10;;;0.10;;
10098;SDS011;5089;42.656;23.374;2023-03-24T04:19:51;0.10;;;0.10;;
10098;SDS011;5089;42.656;23.374;2023-03-24T04:22:46;0.10;;;0.10;;
10098;SDS011;5089;42.656;23.374;2023-03-24T04:28:17;0.10;;;0.10;;
10098;SDS011;5089;42.656;23.374;2023-03-24T04:30:56;0.10;;;0.10;;
10098;SDS011;5089;42.656;23.374;2023-03-24T04:33:29;0.10;;;0.10;;
10098;SDS011;5089;42.656;23.374;2023-03-24T04:36:08;0.10;;;0.10;;
10098;SDS011;5089;42.656;23.374;2023-03-24T04:38:44;0.10;;;0.10;;
10098;SDS011;5089;42.656;23.374;2023-03-24T04:41:14;0.10;;;0.10;;
10098;SDS011;5089;42.656;23.374;2023-03-24T04:49:01;0.10;;;0.10;;
10098;SDS011;5089;42.656;23.374;2023-03-24T04:51:32;0.10;;;0.10;;
10098;SDS011;5089;42.656;23.374;2023-03-24T04:54:00;0.10;;;0.10;;
10098;SDS011;5089;42.656;23.374;2023-03-24T04:56:28;0.10;;;0.10;;
10098;SDS011;5089;42.656;23.374;2023-03-24T04:59:00;0.10;;;0.10;;
10098;SDS011;5089;42.656;23.374;2023-03-24T05:01:27;0.10;;;0.10;;
10098;SDS011;5089;42.656;23.374;2023-03-24T05:03:57;0.10;;;0.10;;
10098;SDS011;5089;42.656;23.374;2023-03-24T05:06:25;0.10;;;0.10;;
10098;SDS011;5089;42.656;23.374;2023-03-24T05:08:55;0.07;;;0.07;;
10098;SDS011;5089;42.656;23.374;2023-03-24T05:11:24;0.10;;;0.10;;
10098;SDS011;5089;42.656;23.374;2023-03-24T05:13:52;0.00;;;0.00;;
10098;SDS011;5089;42.656;23.374;2023-03-24T05:16:19;0.10;;;0.10;;
10098;SDS011;5089;42.656;23.374;2023-03-24T05:18:46;0.10;;;0.10;;
10098;SDS011;5089;42.656;23.374;2023-03-24T05:29:27;0.50;;;0.50;;
10098;SDS011;5089;42.656;23.374;2023-03-24T05:31:54;0.10;;;0.10;;
10098;SDS011;5089;42.656;23.374;2023-03-24T05:36:56;0.10;;;0.10;;
10098;SDS011;5089;42.656;23.374;2023-03-24T05:39:29;0.10;;;0.10;;
10098;SDS011;5089;42.656;23.374;2023-03-24T05:41:58;0.10;;;0.10;;
10098;SDS011;5089;42.656;23.374;2023-03-24T05:44:25;0.10;;;0.10;;
10098;SDS011;5089;42.656;23.374;2023-03-24T05:46:52;0.10;;;0.10;;
10098;SDS011;5089;42.656;23.374;2023-03-24T05:49:20;0.13;;;0.13;;
10098;SDS011;5089;42.656;23.374;2023-03-24T05:51:46;0.10;;;0.10;;
10098;SDS011;5089;42.656;23.374;2023-03-24T05:54:13;0.10;;;0.10;;
10098;SDS011;5089;42.656;23.374;2023-03-24T05:56:42;0.10;;;0.10;;
10098;SDS011;5089;42.656;23.374;2023-03-24T05:59:09;0.10;;;0.10;;
10098;SDS011;5089;42.656;23.374;2023-03-24T06:01:36;0.10;;;0.10;;
10098;SDS011;5089;42.656;23.374;2023-03-24T06:04:03;0.10;;;0.10;;
10098;SDS011;5089;42.656;23.374;2023-03-24T06:06:30;0.10;;;0.10;;
10098;SDS011;5089;42.656;23.374;2023-03-24T06:08:57;0.20;;;0.20;;
10098;SDS011;5089;42.656;23.374;2023-03-24T06:11:26;0.10;;;0.10;;
10098;SDS011;5089;42.656;23.374;2023-03-24T06:13:55;0.10;;;0.10;;
10098;SDS011;5089;42.656;23.374;2023-03-24T06:16:24;0.10;;;0.10;;
10098;SDS011;5089;42.656;23.374;2023-03-24T06:18:51;0.10;;;0.10;;
10098;SDS011;5089;42.656;23.374;2023-03-24T06:21:18;0.10;;;0.10;;
10098;SDS011;5089;42.656;23.374;2023-03-24T06:23:45;0.10;;;0.10;;
10098;SDS011;5089;42.656;23.374;2023-03-24T06:26:12;0.10;;;0.10;;
10098;SDS011;5089;42.656;23.374;2023-03-24T06:28:40;0.20;;;0.20;;
10098;SDS011;5089;42.656;23.374;2023-03-24T06:31:09;0.10;;;0.10;;
10098;SDS011;5089;42.656;23.374;2023-03-24T06:33:39;0.10;;;0.10;;
10098;SDS011;5089;42.656;23.374;2023-03-24T06:36:06;0.10;;;0.10;;
10098;SDS011;5089;42.656;23.374;2023-03-24T06:38:34;0.10;;;0.10;;
10098;SDS011;5089;42.656;23.374;2023-03-24T06:41:01;0.10;;;0.10;;
10098;SDS011;5089;42.656;23.374;2023-03-24T06:43:28;0.10;;;0.10;;
10098;SDS011;5089;42.656;23.374;2023-03-24T06:45:55;0.17;;;0.17;;
10098;SDS011;5089;42.656;23.374;2023-03-24T06:48:24;0.10;;;0.10;;
10098;SDS011;5089;42.656;23.374;2023-03-24T06:50:52;0.20;;;0.20;;
10098;SDS011;5089;42.656;23.374;2023-03-24T06:53:20;0.10;;;0.10;;
10098;SDS011;5089;42.656;23.374;2023-03-24T06:55:47;0.20;;;0.20;;
10098;SDS011;5089;42.656;23.374;2023-03-24T06:58:15;0.10;;;0.10;;
10098;SDS011;5089;42.656;23.374;2023-03-24T07:00:42;0.17;;;0.17;;
10098;SDS011;5089;42.656;23.374;2023-03-24T07:03:10;0.20;;;0.20;;
10098;SDS011;5089;42.656;23.374;2023-03-24T07:05:39;0.10;;;0.10;;
10098;SDS011;5089;42.656;23.374;2023-03-24T07:08:07;0.10;;;0.10;;
10098;SDS011;5089;42.656;23.374;2023-03-24T07:10:36;0.13;;;0.13;;
10098;SDS011;5089;42.656;23.374;2023-03-24T07:13:04;0.10;;;0.10;;
10098;SDS011;5089;42.656;23.374;2023-03-24T07:15:31;0.10;;;0.10;;
10098;SDS011;5089;42.656;23.374;2023-03-24T07:18:12;0.10;;;0.10;;
10098;SDS011;5089;42.656;23.374;2023-03-24T07:20:40;0.27;;;0.27;;
10098;SDS011;5089;42.656;23.374;2023-03-24T07:23:07;0.20;;;0.20;;
10098;SDS011;5089;42.656;23.374;2023-03-24T07:25:34;0.27;;;0.27;;
10098;SDS011;5089;42.656;23.374;2023-03-24T07:28:01;0.30;;;0.30;;
10098;SDS011;5089;42.656;23.374;2023-03-24T07:30:29;0.20;;;0.20;;
10098;SDS011;5089;42.656;23.374;2023-03-24T07:32:56;0.30;;;0.30;;
10098;SDS011;5089;42.656;23.374;2023-03-24T07:35:26;0.30;;;0.30;;
10098;SDS011;5089;42.656;23.374;2023-03-24T07:37:57;0.20;;;0.20;;
10098;SDS011;5089;42.656;23.374;2023-03-24T07:40:24;0.10;;;0.10;;
10098;SDS011;5089;42.656;23.374;2023-03-24T07:42:51;0.20;;;0.20;;
10098;SDS011;5089;42.656;23.374;2023-03-24T07:45:18;0.30;;;0.30;;
10098;SDS011;5089;42.656;23.374;2023-03-24T07:47:46;0.30;;;0.30;;
10098;SDS011;5089;42.656;23.374;2023-03-24T07:50:15;0.30;;;0.30;;
10098;SDS011;5089;42.656;23.374;2023-03-24T07:52:47;0.30;;;0.30;;
10098;SDS011;5089;42.656;23.374;2023-03-24T07:55:16;0.30;;;0.30;;
10098;SDS011;5089;42.656;23.374;2023-03-24T07:57:44;0.30;;;0.30;;
10098;SDS011;5089;42.656;23.374;2023-03-24T08:00:13;0.30;;;0.30;;
10098;SDS011;5089;42.656;23.374;2023-03-24T08:02:42;0.30;;;0.30;;
10098;SDS011;5089;42.656;23.374;2023-03-24T08:05:10;0.30;;;0.30;;
10098;SDS011;5089;42.656;23.374;2023-03-24T08:07:38;0.30;;;0.30;;
10098;SDS011;5089;42.656;23.374;2023-03-24T08:10:07;0.30;;;0.30;;
10098;SDS011;5089;42.656;23.374;2023-03-24T08:12:37;0.30;;;0.30;;
10098;SDS011;5089;42.656;23.374;2023-03-24T08:15:04;0.40;;;0.40;;
10098;SDS011;5089;42.656;23.374;2023-03-24T08:17:33;0.30;;;0.30;;
10098;SDS011;5089;42.656;23.374;2023-03-24T08:20:01;0.30;;;0.30;;
10098;SDS011;5089;42.656;23.374;2023-03-24T08:22:38;0.30;;;0.30;;
10098;SDS011;5089;42.656;23.374;2023-03-24T08:25:06;0.37;;;0.37;;
10098;SDS011;5089;42.656;23.374;2023-03-24T08:27:37;0.20;;;0.20;;
10098;SDS011;5089;42.656;23.374;2023-03-24T08:30:07;0.30;;;0.30;;
10098;SDS011;5089;42.656;23.374;2023-03-24T08:32:36;0.20;;;0.20;;
10098;SDS011;5089;42.656;23.374;2023-03-24T08:35:04;0.30;;;0.30;;
10098;SDS011;5089;42.656;23.374;2023-03-24T08:37:40;0.20;;;0.20;;
10098;SDS011;5089;42.656;23.374;2023-03-24T08:40:21;0.30;;;0.30;;
10098;SDS011;5089;42.656;23.374;2023-03-24T08:42:54;0.30;;;0.30;;
10098;SDS011;5089;42.656;23.374;2023-03-24T08:45:23;0.30;;;0.30;;
10098;SDS011;5089;42.656;23.374;2023-03-24T08:47:54;0.30;;;0.30;;
10098;SDS011;5089;42.656;23.374;2023-03-24T08:50:28;0.30;;;0.30;;
10098;SDS011;5089;42.656;23.374;2023-03-24T08:52:58;0.20;;;0.20;;
10098;SDS011;5089;42.656;23.374;2023-03-24T08:55:29;0.30;;;0.30;;
10098;SDS011;5089;42.656;23.374;2023-03-24T08:58:00;0.30;;;0.30;;
10098;SDS011;5089;42.656;23.374;2023-03-24T09:00:29;0.30;;;0.30;;
10098;SDS011;5089;42.656;23.374;2023-03-24T09:02:56;0.30;;;0.30;;
10098;SDS011;5089;42.656;23.374;2023-03-24T09:05:25;0.30;;;0.30;;
10098;SDS011;5089;42.656;23.374;2023-03-24T09:07:52;0.30;;;0.30;;
10098;SDS011;5089;42.656;23.374;2023-03-24T09:10:19;0.30;;;0.30;;
10098;SDS011;5089;42.656;23.374;2023-03-24T09:12:47;0.30;;;0.30;;
10098;SDS011;5089;42.656;23.374;2023-03-24T09:15:16;0.40;;;0.40;;
10098;SDS011;5089;42.656;23.374;2023-03-24T09:17:44;0.30;;;0.30;;
10098;SDS011;5089;42.656;23.374;2023-03-24T09:20:12;0.33;;;0.33;;
10098;SDS011;5089;42.656;23.374;2023-03-24T09:22:41;0.40;;;0.40;;
10098;SDS011;5089;42.656;23.374;2023-03-24T09:25:11;0.33;;;0.33;;
10098;SDS011;5089;42.656;23.374;2023-03-24T09:27:40;0.30;;;0.30;;
10098;SDS011;5089;42.656;23.374;2023-03-24T09:30:11;0.50;;;0.50;;
10098;SDS011;5089;42.656;23.374;2023-03-24T09:32:44;0.33;;;0.33;;
10098;SDS011;5089;42.656;23.374;2023-03-24T09:35:12;0.40;;;0.40;;
10098;SDS011;5089;42.656;23.374;2023-03-24T09:37:45;0.50;;;0.50;;
10098;SDS011;5089;42.656;23.374;2023-03-24T09:40:14;0.60;;;0.60;;
10098;SDS011;5089;42.656;23.374;2023-03-24T09:42:49;0.67;;;0.67;;
10098;SDS011;5089;42.656;23.374;2023-03-24T09:45:24;0.80;;;0.80;;
10098;SDS011;5089;42.656;23.374;2023-03-24T09:47:55;0.50;;;0.50;;
10098;SDS011;5089;42.656;23.374;2023-03-24T09:50:26;0.60;;;0.60;;
10098;SDS011;5089;42.656;23.374;2023-03-24T09:53:01;0.67;;;0.67;;
10098;SDS011;5089;42.656;23.374;2023-03-24T09:55:33;0.60;;;0.60;;
10098;SDS011;5089;42.656;23.374;2023-03-24T09:58:07;0.70;;;0.70;;
10098;SDS011;5089;42.656;23.374;2023-03-24T10:00:38;0.60;;;0.60;;
10098;SDS011;5089;42.656;23.374;2023-03-24T10:03:12;0.70;;;0.70;;
10098;SDS011;5089;42.656;23.374;2023-03-24T10:05:45;0.70;;;0.70;;
10098;SDS011;5089;42.656;23.374;2023-03-24T10:08:20;0.60;;;0.60;;
10098;SDS011;5089;42.656;23.374;2023-03-24T10:13:31;0.53;;;0.53;;
10098;SDS011;5089;42.656;23.374;2023-03-24T10:16:11;0.70;;;0.70;;
10098;SDS011;5089;42.656;23.374;2023-03-24T10:30:34;0.70;;;0.70;;
10098;SDS011;5089;42.656;23.374;2023-03-24T12:16:48;0.50;;;0.50;;
10098;SDS011;5089;42.656;23.374;2023-03-24T12:19:42;0.60;;;0.60;;
10098;SDS011;5089;42.656;23.374;2023-03-24T12:22:49;0.70;;;0.70;;
10098;SDS011;5089;42.656;23.374;2023-03-24T12:25:41;2.27;;;1.43;;
10098;SDS011;5089;42.656;23.374;2023-03-24T12:31:34;0.47;;;0.47;;
10098;SDS011;5089;42.656;23.374;2023-03-24T12:34:24;0.60;;;0.60;;
10098;SDS011;5089;42.656;23.374;2023-03-24T12:37:30;0.47;;;0.47;;
10098;SDS011;5089;42.656;23.374;2023-03-24T12:40:06;0.40;;;0.40;;
10098;SDS011;5089;42.656;23.374;2023-03-24T12:42:52;0.47;;;0.47;;
10098;SDS011;5089;42.656;23.374;2023-03-24T12:45:30;0.50;;;0.50;;
10098;SDS011;5089;42.656;23.374;2023-03-24T12:48:17;0.50;;;0.50;;
10098;SDS011;5089;42.656;23.374;2023-03-24T12:50:59;0.60;;;0.60;;
10098;SDS011;5089;42.656;23.374;2023-03-24T12:53:39;0.50;;;0.50;;
10098;SDS011;5089;42.656;23.374;2023-03-24T12:56:18;0.50;;;0.50;;
10098;SDS011;5089;42.656;23.374;2023-03-24T12:58:51;0.63;;;0.63;;
10098;SDS011;5089;42.656;23.374;2023-03-24T13:01:31;0.50;;;0.50;;
10098;SDS011;5089;42.656;23.374;2023-03-24T13:07:12;0.63;;;0.63;;
10098;SDS011;5089;42.656;23.374;2023-03-24T13:09:45;0.60;;;0.60;;
10098;SDS011;5089;42.656;23.374;2023-03-24T13:12:18;0.70;;;0.70;;
10098;SDS011;5089;42.656;23.374;2023-03-24T13:14:53;0.60;;;0.60;;
10098;SDS011;5089;42.656;23.374;2023-03-24T13:17:28;0.50;;;0.50;;
10098;SDS011;5089;42.656;23.374;2023-03-24T13:20:00;0.60;;;0.60;;
10098;SDS011;5089;42.656;23.374;2023-03-24T13:22:35;0.60;;;0.60;;
10098;SDS011;5089;42.656;23.374;2023-03-24T13:25:03;0.50;;;0.50;;
10098;SDS011;5089;42.656;23.374;2023-03-24T13:27:46;0.60;;;0.60;;
10098;SDS011;5089;42.656;23.374;2023-03-24T13:30:27;0.70;;;0.70;;
10098;SDS011;5089;42.656;23.374;2023-03-24T13:33:05;0.50;;;0.50;;
10098;SDS011;5089;42.656;23.374;2023-03-24T13:35:58;0.40;;;0.40;;
10098;SDS011;5089;42.656;23.374;2023-03-24T13:38:36;0.40;;;0.40;;
10098;SDS011;5089;42.656;23.374;2023-03-24T13:41:08;0.60;;;0.60;;
10098;SDS011;5089;42.656;23.374;2023-03-24T13:43:45;0.50;;;0.50;;
10098;SDS011;5089;42.656;23.374;2023-03-24T13:46:26;0.40;;;0.40;;
10098;SDS011;5089;42.656;23.374;2023-03-24T13:49:02;0.50;;;0.50;;
10098;SDS011;5089;42.656;23.374;2023-03-24T13:51:39;0.63;;;0.63;;
10098;SDS011;5089;42.656;23.374;2023-03-24T13:54:12;0.60;;;0.60;;
10098;SDS011;5089;42.656;23.374;2023-03-24T13:56:44;0.60;;;0.60;;
10098;SDS011;5089;42.656;23.374;2023-03-24T14:02:19;0.50;;;0.50;;
10098;SDS011;5089;42.656;23.374;2023-03-24T14:04:48;0.60;;;0.60;;
10098;SDS011;5089;42.656;23.374;2023-03-24T14:07:30;0.63;;;0.63;;
10098;SDS011;5089;42.656;23.374;2023-03-24T14:10:26;0.70;;;0.70;;
10098;SDS011;5089;42.656;23.374;2023-03-24T14:19:18;0.50;;;0.50;;
10098;SDS011;5089;42.656;23.374;2023-03-24T14:24:53;0.50;;;0.50;;
10098;SDS011;5089;42.656;23.374;2023-03-24T14:27:37;0.50;;;0.50;;
10098;SDS011;5089;42.656;23.374;2023-03-24T14:30:15;0.50;;;0.50;;
10098;SDS011;5089;42.656;23.374;2023-03-24T14:33:01;0.30;;;0.30;;
10098;SDS011;5089;42.656;23.374;2023-03-24T14:35:44;0.30;;;0.30;;
10098;SDS011;5089;42.656;23.374;2023-03-24T14:38:26;0.40;;;0.40;;
10098;SDS011;5089;42.656;23.374;2023-03-24T14:40:59;0.50;;;0.50;;
10098;SDS011;5089;42.656;23.374;2023-03-24T14:46:33;0.50;;;0.50;;
10098;SDS011;5089;42.656;23.374;2023-03-24T14:49:16;0.30;;;0.30;;
10098;SDS011;5089;42.656;23.374;2023-03-24T14:52:01;0.60;;;0.60;;
10098;SDS011;5089;42.656;23.374;2023-03-24T14:54:36;0.50;;;0.50;;
10098;SDS011;5089;42.656;23.374;2023-03-24T14:57:10;0.60;;;0.60;;
10098;SDS011;5089;42.656;23.374;2023-03-24T14:59:48;0.50;;;0.50;;
10098;SDS011;5089;42.656;23.374;2023-03-24T15:02:26;0.50;;;0.50;;
10098;SDS011;5089;42.656;23.374;2023-03-24T15:05:14;0.50;;;0.50;;
10098;SDS011;5089;42.656;23.374;2023-03-24T15:07:57;0.50;;;0.50;;
10098;SDS011;5089;42.656;23.374;2023-03-24T15:10:42;0.40;;;0.40;;
10098;SDS011;5089;42.656;23.374;2023-03-24T15:13:35;0.40;;;0.40;;
10098;SDS011;5089;42.656;23.374;2023-03-24T15:16:21;0.50;;;0.50;;
10098;SDS011;5089;42.656;23.374;2023-03-24T15:19:05;0.40;;;0.40;;
10098;SDS011;5089;42.656;23.374;2023-03-24T15:22:00;0.47;;;0.47;;
10098;SDS011;5089;42.656;23.374;2023-03-24T15:24:45;0.30;;;0.30;;
10098;SDS011;5089;42.656;23.374;2023-03-24T15:27:27;0.33;;;0.33;;
10098;SDS011;5089;42.656;23.374;2023-03-24T15:33:24;0.50;;;0.50;;
10098;SDS011;5089;42.656;23.374;2023-03-24T15:35:56;0.30;;;0.30;;
10098;SDS011;5089;42.656;23.374;2023-03-24T15:38:26;0.40;;;0.40;;
10098;SDS011;5089;42.656;23.374;2023-03-24T15:40:57;0.50;;;0.50;;
10098;SDS011;5089;42.656;23.374;2023-03-24T15:43:26;0.50;;;0.50;;
10098;SDS011;5089;42.656;23.374;2023-03-24T15:45:55;0.50;;;0.50;;
10098;SDS011;5089;42.656;23.374;2023-03-24T15:48:26;0.50;;;0.50;;
10098;SDS011;5089;42.656;23.374;2023-03-24T15:50:59;0.37;;;0.37;;
10098;SDS011;5089;42.656;23.374;2023-03-24T15:53:44;0.30;;;0.30;;
10098;SDS011;5089;42.656;23.374;2023-03-24T15:56:17;0.50;;;0.50;;
10098;SDS011;5089;42.656;23.374;2023-03-24T15:58:51;0.50;;;0.50;;
10098;SDS011;5089;42.656;23.374;2023-03-24T16:01:24;0.40;;;0.40;;
10098;SDS011;5089;42.656;23.374;2023-03-24T16:04:06;0.50;;;0.50;;
10098;SDS011;5089;42.656;23.374;2023-03-24T16:06:41;0.47;;;0.47;;
10098;SDS011;5089;42.656;23.374;2023-03-24T16:09:13;0.50;;;0.50;;
10098;SDS011;5089;42.656;23.374;2023-03-24T16:11:46;0.53;;;0.53;;
10098;SDS011;5089;42.656;23.374;2023-03-24T16:14:19;0.50;;;0.50;;
10098;SDS011;5089;42.656;23.374;2023-03-24T16:16:51;0.50;;;0.50;;
10098;SDS011;5089;42.656;23.374;2023-03-24T16:22:50;0.47;;;0.47;;
10098;SDS011;5089;42.656;23.374;2023-03-24T16:25:21;0.40;;;0.40;;
10098;SDS011;5089;42.656;23.374;2023-03-24T16:28:01;0.40;;;0.40;;
10098;SDS011;5089;42.656;23.374;2023-03-24T16:30:36;0.67;;;0.67;;
10098;SDS011;5089;42.656;23.374;2023-03-24T16:33:05;0.53;;;0.53;;
10098;SDS011;5089;42.656;23.374;2023-03-24T16:35:32;0.40;;;0.40;;
10098;SDS011;5089;42.656;23.374;2023-03-24T16:38:02;0.50;;;0.50;;
10098;SDS011;5089;42.656;23.374;2023-03-24T16:40:32;0.40;;;0.40;;
10098;SDS011;5089;42.656;23.374;2023-03-24T16:43:02;0.50;;;0.50;;
10098;SDS011;5089;42.656;23.374;2023-03-24T16:45:31;0.60;;;0.60;;
10098;SDS011;5089;42.656;23.374;2023-03-24T16:47:59;0.50;;;0.50;;
10098;SDS011;5089;42.656;23.374;2023-03-24T16:50:28;0.30;;;0.30;;
10098;SDS011;5089;42.656;23.374;2023-03-24T16:53:13;0.50;;;0.50;;
10098;SDS011;5089;42.656;23.374;2023-03-24T16:55:40;0.60;;;0.60;;
10098;SDS011;5089;42.656;23.374;2023-03-24T16:58:08;0.57;;;0.57;;
10098;SDS011;5089;42.656;23.374;2023-03-24T17:00:37;0.60;;;0.60;;
10098;SDS011;5089;42.656;23.374;2023-03-24T17:03:08;0.50;;;0.50;;
10098;SDS011;5089;42.656;23.374;2023-03-24T17:05:38;0.60;;;0.60;;
10098;SDS011;5089;42.656;23.374;2023-03-24T17:08:06;0.50;;;0.50;;
10098;SDS011;5089;42.656;23.374;2023-03-24T17:10:36;0.70;;;0.70;;
10098;SDS011;5089;42.656;23.374;2023-03-24T17:13:03;0.50;;;0.50;;
10098;SDS011;5089;42.656;23.374;2023-03-24T17:15:31;0.30;;;0.30;;
10098;SDS011;5089;42.656;23.374;2023-03-24T17:18:12;0.50;;;0.50;;
10098;SDS011;5089;42.656;23.374;2023-03-24T17:20:41;0.53;;;0.53;;
10098;SDS011;5089;42.656;23.374;2023-03-24T17:23:08;0.60;;;0.60;;
10098;SDS011;5089;42.656;23.374;2023-03-24T17:25:38;0.50;;;0.50;;
10098;SDS011;5089;42.656;23.374;2023-03-24T17:28:08;0.50;;;0.50;;
10098;SDS011;5089;42.656;23.374;2023-03-24T17:30:38;0.43;;;0.43;;
10098;SDS011;5089;42.656;23.374;2023-03-24T17:33:05;0.50;;;0.50;;
10098;SDS011;5089;42.656;23.374;2023-03-24T17:35:32;0.40;;;0.40;;
10098;SDS011;5089;42.656;23.374;2023-03-24T17:37:59;0.40;;;0.40;;
10098;SDS011;5089;42.656;23.374;2023-03-24T17:40:26;0.57;;;0.57;;
10098;SDS011;5089;42.656;23.374;2023-03-24T17:42:55;0.60;;;0.60;;
10098;SDS011;5089;42.656;23.374;2023-03-24T17:45:22;0.60;;;0.60;;
10098;SDS011;5089;42.656;23.374;2023-03-24T17:47:48;0.60;;;0.60;;
10098;SDS011;5089;42.656;23.374;2023-03-24T17:50:15;0.50;;;0.50;;
10098;SDS011;5089;42.656;23.374;2023-03-24T17:52:43;0.50;;;0.50;;
10098;SDS011;5089;42.656;23.374;2023-03-24T17:55:12;0.50;;;0.50;;
10098;SDS011;5089;42.656;23.374;2023-03-24T17:57:41;0.53;;;0.53;;
10098;SDS011;5089;42.656;23.374;2023-03-24T18:00:12;0.50;;;0.50;;
10098;SDS011;5089;42.656;23.374;2023-03-24T18:02:41;0.43;;;0.43;;
10098;SDS011;5089;42.656;23.374;2023-03-24T18:05:09;0.40;;;0.40;;
10098;SDS011;5089;42.656;23.374;2023-03-24T18:07:38;0.30;;;0.30;;
10098;SDS011;5089;42.656;23.374;2023-03-24T18:10:07;0.50;;;0.50;;
10098;SDS011;5089;42.656;23.374;2023-03-24T18:12:34;0.60;;;0.60;;
10098;SDS011;5089;42.656;23.374;2023-03-24T18:15:02;0.40;;;0.40;;
10098;SDS011;5089;42.656;23.374;2023-03-24T18:17:34;0.53;;;0.53;;
10098;SDS011;5089;42.656;23.374;2023-03-24T18:20:03;0.50;;;0.50;;
10098;SDS011;5089;42.656;23.374;2023-03-24T18:22:33;0.50;;;0.50;;
10098;SDS011;5089;42.656;23.374;2023-03-24T18:25:01;0.60;;;0.60;;
10098;SDS011;5089;42.656;23.374;2023-03-24T18:27:28;0.40;;;0.40;;
10098;SDS011;5089;42.656;23.374;2023-03-24T18:29:56;0.50;;;0.50;;
10098;SDS011;5089;42.656;23.374;2023-03-24T18:32:23;0.47;;;0.47;;
10098;SDS011;5089;42.656;23.374;2023-03-24T18:34:54;0.50;;;0.50;;
10098;SDS011;5089;42.656;23.374;2023-03-24T18:37:24;0.50;;;0.50;;
10098;SDS011;5089;42.656;23.374;2023-03-24T18:39:52;0.47;;;0.47;;
10098;SDS011;5089;42.656;23.374;2023-03-24T18:42:20;0.50;;;0.50;;
10098;SDS011;5089;42.656;23.374;2023-03-24T18:45:04;0.40;;;0.40;;
10098;SDS011;5089;42.656;23.374;2023-03-24T18:47:42;0.40;;;0.40;;
10098;SDS011;5089;42.656;23.374;2023-03-24T18:50:28;0.50;;;0.50;;
10098;SDS011;5089;42.656;23.374;2023-03-24T18:53:08;0.40;;;0.40;;
10098;SDS011;5089;42.656;23.374;2023-03-24T18:55:41;0.40;;;0.40;;
10098;SDS011;5089;42.656;23.374;2023-03-24T18:58:19;0.40;;;0.40;;
10098;SDS011;5089;42.656;23.374;2023-03-24T19:00:49;0.47;;;0.47;;
10098;SDS011;5089;42.656;23.374;2023-03-24T19:03:31;0.50;;;0.50;;
10098;SDS011;5089;42.656;23.374;2023-03-24T19:08:50;0.40;;;0.40;;
10098;SDS011;5089;42.656;23.374;2023-03-24T19:11:31;0.50;;;0.50;;
10098;SDS011;5089;42.656;23.374;2023-03-24T19:13:59;0.27;;;0.27;;
10098;SDS011;5089;42.656;23.374;2023-03-24T19:19:31;0.20;;;0.20;;
10098;SDS011;5089;42.656;23.374;2023-03-24T19:22:01;0.20;;;0.20;;
10098;SDS011;5089;42.656;23.374;2023-03-24T19:24:37;0.20;;;0.20;;
10098;SDS011;5089;42.656;23.374;2023-03-24T19:27:04;0.20;;;0.20;;
10098;SDS011;5089;42.656;23.374;2023-03-24T19:29:32;0.20;;;0.20;;
10098;SDS011;5089;42.656;23.374;2023-03-24T19:32:00;0.20;;;0.20;;